DLH444 LSZH-EGKK
Flight info
| Callsign | DLH444 |
|---|---|
| Flight time | 1h 12m |
| Altitude | 40000 |
| Route | VEBIT T10 TORPA DCT REKLA DCT RLP DCT ROTSI DCT KOTUN DCT NINAL DCT KESAX DCT KUNAV |
| Aircraft | A343/H-SDE2E3FGHIJ4J5M1RWXY/LB1D1 |
Departure
| Time | 2026-04-26 10:40 |
|---|---|
| Airport | Zürich Airport (LSZH) |
Arrival
| Time | 2026-04-26 11:52 |
|---|---|
| Airport | London Gatwick Airport (EGKK) |
| Time | Latitude | Longitude | Altitude | Speed | Heading |
|---|---|---|---|---|---|
| 2026-04-26 10:16 | 47.46044 | 8.55528 | 1408 ft | 0 kts | 6° |
| 2026-04-26 10:17 | 47.46032 | 8.55736 | 1410 ft | 0 kts | 6° |
| 2026-04-26 10:29 | 47.46015 | 8.55733 | 1409 ft | 3 kts | 7° |
| 2026-04-26 10:30 | 47.45993 | 8.55729 | 1408 ft | 3 kts | 9° |
| 2026-04-26 10:30 | 47.45978 | 8.55725 | 1401 ft | 3 kts | 14° |
| 2026-04-26 10:30 | 47.45961 | 8.55717 | 1405 ft | 1 kts | 47° |
| 2026-04-26 10:30 | 47.45956 | 8.55710 | 1407 ft | 1 kts | 66° |
| 2026-04-26 10:31 | 47.45953 | 8.55700 | 1414 ft | 1 kts | 84° |
| 2026-04-26 10:31 | 47.45952 | 8.55689 | 1414 ft | 1 kts | 91° |
| 2026-04-26 10:31 | 47.45952 | 8.55673 | 1410 ft | 2 kts | 96° |
| 2026-04-26 10:31 | 47.45954 | 8.55657 | 1412 ft | 2 kts | 97° |
| 2026-04-26 10:32 | 47.45954 | 8.55654 | 1411 ft | 0 kts | 97° |
| 2026-04-26 10:34 | 47.45954 | 8.55655 | 1401 ft | 0 kts | 97° |
| 2026-04-26 10:34 | 47.45954 | 8.55656 | 1401 ft | 0 kts | 97° |
| 2026-04-26 10:35 | 47.45953 | 8.55661 | 1401 ft | 1 kts | 97° |
| 2026-04-26 10:35 | 47.45952 | 8.55669 | 1407 ft | 1 kts | 97° |
| 2026-04-26 10:35 | 47.45950 | 8.55698 | 1402 ft | 10 kts | 97° |
| 2026-04-26 10:35 | 47.45941 | 8.55832 | 1406 ft | 17 kts | 95° |
| 2026-04-26 10:36 | 47.45926 | 8.55996 | 1410 ft | 15 kts | 97° |
| 2026-04-26 10:36 | 47.45915 | 8.56147 | 1408 ft | 14 kts | 94° |
| 2026-04-26 10:36 | 47.45909 | 8.56245 | 1408 ft | 0 kts | 101° |
| 2026-04-26 10:36 | 47.45908 | 8.56255 | 1410 ft | 0 kts | 101° |
| 2026-04-26 10:37 | 47.45905 | 8.56264 | 1415 ft | 8 kts | 111° |
| 2026-04-26 10:37 | 47.45850 | 8.56313 | 1412 ft | 11 kts | 145° |
| 2026-04-26 10:37 | 47.45812 | 8.56422 | 1405 ft | 13 kts | 101° |
| 2026-04-26 10:37 | 47.45798 | 8.56556 | 1408 ft | 13 kts | 96° |
| 2026-04-26 10:38 | 47.45789 | 8.56698 | 1409 ft | 15 kts | 95° |
| 2026-04-26 10:38 | 47.45779 | 8.56864 | 1407 ft | 17 kts | 95° |
| 2026-04-26 10:38 | 47.45749 | 8.57008 | 1408 ft | 11 kts | 135° |
| 2026-04-26 10:38 | 47.45681 | 8.57012 | 1409 ft | 9 kts | 209° |
| 2026-04-26 10:39 | 47.45668 | 8.56960 | 1408 ft | 5 kts | 269° |
| 2026-04-26 10:39 | 47.45675 | 8.56820 | 1409 ft | 37 kts | 274° |
| 2026-04-26 10:39 | 47.45732 | 8.56028 | 1410 ft | 119 kts | 276° |
| 2026-04-26 10:39 | 47.45843 | 8.54484 | 1481 ft | 174 kts | 278° |
| 2026-04-26 10:40 | 47.45955 | 8.52644 | 2170 ft | 185 kts | 276° |
| 2026-04-26 10:40 | 47.46078 | 8.50661 | 2839 ft | 206 kts | 278° |
| 2026-04-26 10:40 | 47.45785 | 8.48391 | 3073 ft | 253 kts | 241° |
| 2026-04-26 10:40 | 47.44720 | 8.46183 | 3684 ft | 278 kts | 231° |
| 2026-04-26 10:41 | 47.43517 | 8.43913 | 4917 ft | 279 kts | 231° |
| 2026-04-26 10:41 | 47.42365 | 8.41632 | 6252 ft | 273 kts | 233° |
| 2026-04-26 10:41 | 47.41257 | 8.39368 | 7494 ft | 273 kts | 234° |
| 2026-04-26 10:41 | 47.40142 | 8.37057 | 8525 ft | 279 kts | 234° |
| 2026-04-26 10:42 | 47.39038 | 8.34663 | 9507 ft | 285 kts | 239° |
| 2026-04-26 10:42 | 47.38055 | 8.32086 | 10457 ft | 291 kts | 243° |
| 2026-04-26 10:42 | 47.37087 | 8.29363 | 11016 ft | 311 kts | 244° |
| 2026-04-26 10:42 | 47.36056 | 8.26443 | 11546 ft | 328 kts | 243° |
| 2026-04-26 10:43 | 47.34988 | 8.23418 | 12315 ft | 336 kts | 244° |
| 2026-04-26 10:43 | 47.33901 | 8.20345 | 13175 ft | 340 kts | 244° |
| 2026-04-26 10:43 | 47.32798 | 8.17244 | 14089 ft | 343 kts | 244° |
| 2026-04-26 10:43 | 47.31681 | 8.14114 | 14874 ft | 347 kts | 243° |
| 2026-04-26 10:44 | 47.30552 | 8.10938 | 15691 ft | 351 kts | 244° |
| 2026-04-26 10:44 | 47.29415 | 8.07740 | 16523 ft | 353 kts | 244° |
| 2026-04-26 10:44 | 47.28295 | 8.04509 | 17397 ft | 355 kts | 246° |
| 2026-04-26 10:44 | 47.27480 | 8.01065 | 18140 ft | 359 kts | 258° |
| 2026-04-26 10:45 | 47.27231 | 7.97393 | 18820 ft | 363 kts | 271° |
| 2026-04-26 10:45 | 47.27396 | 7.93676 | 19559 ft | 365 kts | 276° |
| 2026-04-26 10:45 | 47.27714 | 7.89944 | 20228 ft | 370 kts | 278° |
| 2026-04-26 10:45 | 47.28106 | 7.86198 | 20960 ft | 371 kts | 278° |
| 2026-04-26 10:46 | 47.28520 | 7.82421 | 21588 ft | 376 kts | 278° |
| 2026-04-26 10:46 | 47.28931 | 7.78585 | 22184 ft | 381 kts | 278° |
| 2026-04-26 10:46 | 47.29329 | 7.74712 | 22791 ft | 386 kts | 278° |
| 2026-04-26 10:46 | 47.29715 | 7.70784 | 23423 ft | 389 kts | 277° |
| 2026-04-26 10:47 | 47.30092 | 7.66835 | 24048 ft | 391 kts | 277° |
| 2026-04-26 10:47 | 47.30604 | 7.62879 | 24552 ft | 394 kts | 283° |
| 2026-04-26 10:47 | 47.31340 | 7.58974 | 25052 ft | 398 kts | 285° |
| 2026-04-26 10:47 | 47.32142 | 7.55057 | 25562 ft | 401 kts | 286° |
| 2026-04-26 10:48 | 47.32984 | 7.51130 | 26054 ft | 403 kts | 286° |
| 2026-04-26 10:48 | 47.33849 | 7.47180 | 26531 ft | 405 kts | 286° |
| 2026-04-26 10:48 | 47.34718 | 7.43227 | 27085 ft | 406 kts | 286° |
| 2026-04-26 10:48 | 47.35590 | 7.39247 | 27565 ft | 409 kts | 286° |
| 2026-04-26 10:49 | 47.36462 | 7.35242 | 28024 ft | 412 kts | 286° |
| 2026-04-26 10:49 | 47.37336 | 7.31209 | 28496 ft | 414 kts | 286° |
| 2026-04-26 10:49 | 47.38211 | 7.27148 | 28960 ft | 416 kts | 286° |
| 2026-04-26 10:49 | 47.39087 | 7.23070 | 29367 ft | 419 kts | 285° |
| 2026-04-26 10:50 | 47.39968 | 7.18958 | 29788 ft | 421 kts | 285° |
| 2026-04-26 10:50 | 47.40524 | 7.16217 | 30086 ft | 422 kts | 283° |
| 2026-04-26 10:50 | 47.41438 | 7.10567 | 30597 ft | 424 kts | 281° |
| 2026-04-26 10:50 | 47.42086 | 7.06306 | 30930 ft | 427 kts | 281° |
| 2026-04-26 10:51 | 47.42714 | 7.02066 | 31223 ft | 430 kts | 281° |
| 2026-04-26 10:51 | 47.43974 | 6.93398 | 31886 ft | 434 kts | 281° |
| 2026-04-26 10:51 | 47.44605 | 6.89034 | 32207 ft | 436 kts | 281° |
| 2026-04-26 10:52 | 47.45239 | 6.84655 | 32617 ft | 435 kts | 281° |
| 2026-04-26 10:52 | 47.45869 | 6.80297 | 33064 ft | 434 kts | 280° |
| 2026-04-26 10:52 | 47.46499 | 6.75944 | 33522 ft | 432 kts | 280° |
| 2026-04-26 10:52 | 47.47124 | 6.71605 | 33959 ft | 431 kts | 280° |
| 2026-04-26 10:53 | 47.47729 | 6.67265 | 34337 ft | 430 kts | 279° |
| 2026-04-26 10:53 | 47.48142 | 6.62888 | 34613 ft | 431 kts | 276° |
| 2026-04-26 10:53 | 47.48497 | 6.58487 | 34912 ft | 431 kts | 276° |
| 2026-04-26 10:54 | 47.49139 | 6.49686 | 35550 ft | 430 kts | 275° |
| 2026-04-26 10:54 | 47.49446 | 6.45285 | 35873 ft | 430 kts | 275° |
| 2026-04-26 10:54 | 47.49752 | 6.40890 | 36168 ft | 430 kts | 275° |
| 2026-04-26 10:54 | 47.50058 | 6.36489 | 36466 ft | 430 kts | 275° |
| 2026-04-26 10:55 | 47.50365 | 6.32088 | 36749 ft | 430 kts | 275° |
| 2026-04-26 10:55 | 47.50671 | 6.27685 | 37042 ft | 430 kts | 275° |
| 2026-04-26 10:55 | 47.50976 | 6.23282 | 37315 ft | 431 kts | 276° |
| 2026-04-26 10:55 | 47.51281 | 6.18868 | 37576 ft | 431 kts | 276° |
| 2026-04-26 10:56 | 47.51584 | 6.14459 | 37863 ft | 431 kts | 276° |
| 2026-04-26 10:56 | 47.51886 | 6.10047 | 38167 ft | 431 kts | 276° |
| 2026-04-26 10:56 | 47.52186 | 6.05638 | 38454 ft | 430 kts | 276° |
| 2026-04-26 10:56 | 47.52483 | 6.01235 | 38749 ft | 430 kts | 275° |
| 2026-04-26 10:57 | 47.52779 | 5.96834 | 39005 ft | 430 kts | 275° |
| 2026-04-26 10:57 | 47.53153 | 5.92456 | 39210 ft | 430 kts | 280° |
| 2026-04-26 10:57 | 47.53889 | 5.88172 | 39408 ft | 430 kts | 288° |
| 2026-04-26 10:57 | 47.55051 | 5.84102 | 39597 ft | 431 kts | 297° |
| 2026-04-26 10:58 | 47.56649 | 5.80357 | 39805 ft | 431 kts | 307° |
| 2026-04-26 10:58 | 47.58563 | 5.76933 | 40026 ft | 431 kts | 310° |
| 2026-04-26 10:58 | 47.60562 | 5.73617 | 40169 ft | 433 kts | 311° |
| 2026-04-26 10:58 | 47.62616 | 5.70322 | 40197 ft | 438 kts | 311° |
| 2026-04-26 10:59 | 47.66792 | 5.63694 | 40208 ft | 445 kts | 311° |
| 2026-04-26 10:59 | 47.71002 | 5.56950 | 40201 ft | 442 kts | 311° |
| 2026-04-26 11:00 | 47.75147 | 5.50238 | 40206 ft | 440 kts | 311° |
| 2026-04-26 11:00 | 47.79277 | 5.43512 | 40208 ft | 440 kts | 311° |
| 2026-04-26 11:01 | 47.83404 | 5.36775 | 40205 ft | 440 kts | 311° |
| 2026-04-26 11:01 | 47.87525 | 5.30034 | 40208 ft | 440 kts | 311° |
| 2026-04-26 11:02 | 47.91642 | 5.23284 | 40212 ft | 440 kts | 311° |
| 2026-04-26 11:02 | 47.95757 | 5.16519 | 40212 ft | 440 kts | 311° |
| 2026-04-26 11:03 | 47.99864 | 5.09747 | 40211 ft | 440 kts | 311° |
| 2026-04-26 11:03 | 48.03966 | 5.02967 | 40212 ft | 440 kts | 311° |
| 2026-04-26 11:04 | 48.08064 | 4.96177 | 40212 ft | 440 kts | 311° |
| 2026-04-26 11:04 | 48.12152 | 4.89384 | 40233 ft | 439 kts | 311° |
| 2026-04-26 11:05 | 48.16208 | 4.82627 | 40215 ft | 439 kts | 311° |
| 2026-04-26 11:05 | 48.20285 | 4.75820 | 40219 ft | 438 kts | 311° |
| 2026-04-26 11:06 | 48.23690 | 4.70121 | 40221 ft | 438 kts | 311° |
| 2026-04-26 11:06 | 48.28412 | 4.62200 | 40230 ft | 437 kts | 311° |
| 2026-04-26 11:07 | 48.32464 | 4.55383 | 40231 ft | 437 kts | 311° |
| 2026-04-26 11:07 | 48.36507 | 4.48559 | 40234 ft | 437 kts | 311° |
| 2026-04-26 11:08 | 48.40545 | 4.41727 | 40240 ft | 437 kts | 311° |
| 2026-04-26 11:08 | 48.44578 | 4.34886 | 40240 ft | 437 kts | 311° |
| 2026-04-26 11:09 | 48.48607 | 4.28036 | 40234 ft | 436 kts | 311° |
| 2026-04-26 11:09 | 48.52614 | 4.21204 | 40251 ft | 434 kts | 311° |
| 2026-04-26 11:10 | 48.56610 | 4.14376 | 40256 ft | 434 kts | 311° |
| 2026-04-26 11:10 | 48.60601 | 4.07537 | 40259 ft | 434 kts | 311° |
| 2026-04-26 11:11 | 48.64586 | 4.00689 | 40258 ft | 434 kts | 311° |
| 2026-04-26 11:11 | 48.68540 | 3.93879 | 40259 ft | 434 kts | 311° |
| 2026-04-26 11:12 | 48.72519 | 3.87008 | 40256 ft | 434 kts | 311° |
| 2026-04-26 11:12 | 48.76701 | 3.80420 | 40256 ft | 434 kts | 315° |
| 2026-04-26 11:13 | 48.81078 | 3.74117 | 40253 ft | 434 kts | 316° |
| 2026-04-26 11:13 | 48.85437 | 3.67772 | 40254 ft | 434 kts | 315° |
| 2026-04-26 11:14 | 48.89752 | 3.61362 | 40251 ft | 434 kts | 315° |
| 2026-04-26 11:14 | 48.93324 | 3.56005 | 40252 ft | 434 kts | 315° |
| 2026-04-26 11:15 | 48.97619 | 3.49542 | 40252 ft | 434 kts | 315° |
| 2026-04-26 11:15 | 49.01904 | 3.43082 | 40255 ft | 433 kts | 315° |
| 2026-04-26 11:16 | 49.06903 | 3.35529 | 40255 ft | 433 kts | 315° |
| 2026-04-26 11:16 | 49.10455 | 3.30150 | 40256 ft | 433 kts | 315° |
| 2026-04-26 11:17 | 49.14719 | 3.23676 | 40257 ft | 432 kts | 315° |
| 2026-04-26 11:17 | 49.18981 | 3.17188 | 40259 ft | 432 kts | 315° |
| 2026-04-26 11:18 | 49.23155 | 3.10819 | 40257 ft | 432 kts | 314° |
| 2026-04-26 11:18 | 49.27489 | 3.04190 | 40262 ft | 432 kts | 314° |
| 2026-04-26 11:19 | 49.31734 | 2.97680 | 40258 ft | 432 kts | 314° |
| 2026-04-26 11:19 | 49.35975 | 2.91159 | 40257 ft | 432 kts | 314° |
| 2026-04-26 11:20 | 49.40209 | 2.84630 | 40260 ft | 432 kts | 314° |
| 2026-04-26 11:20 | 49.44441 | 2.78088 | 40259 ft | 432 kts | 314° |
| 2026-04-26 11:21 | 49.48640 | 2.71580 | 40260 ft | 432 kts | 314° |
| 2026-04-26 11:21 | 49.52865 | 2.65015 | 40261 ft | 431 kts | 314° |
| 2026-04-26 11:22 | 49.57080 | 2.58447 | 40266 ft | 431 kts | 314° |
| 2026-04-26 11:22 | 49.61291 | 2.51862 | 40270 ft | 431 kts | 314° |
| 2026-04-26 11:23 | 49.65246 | 2.44925 | 40274 ft | 431 kts | 309° |
| 2026-04-26 11:23 | 49.69045 | 2.37772 | 40278 ft | 431 kts | 309° |
| 2026-04-26 11:24 | 49.69716 | 2.36513 | 40276 ft | 431 kts | 309° |
| 2026-04-26 11:24 | 49.71877 | 2.32484 | 40281 ft | 431 kts | 309° |
| 2026-04-26 11:25 | 49.75728 | 2.25393 | 40270 ft | 431 kts | 309° |
| 2026-04-26 11:25 | 49.77658 | 2.21857 | 40076 ft | 428 kts | 310° |
| 2026-04-26 11:25 | 49.79563 | 2.18369 | 39852 ft | 421 kts | 310° |
| 2026-04-26 11:26 | 49.81445 | 2.14921 | 39612 ft | 417 kts | 310° |
| 2026-04-26 11:26 | 49.83308 | 2.11503 | 39377 ft | 413 kts | 309° |
| 2026-04-26 11:26 | 49.85155 | 2.08108 | 39004 ft | 412 kts | 309° |
| 2026-04-26 11:26 | 49.87002 | 2.04706 | 38486 ft | 412 kts | 309° |
| 2026-04-26 11:27 | 49.88843 | 2.01311 | 38012 ft | 411 kts | 309° |
| 2026-04-26 11:27 | 49.90680 | 1.97918 | 37537 ft | 410 kts | 309° |
| 2026-04-26 11:27 | 49.92511 | 1.94532 | 37057 ft | 409 kts | 309° |
| 2026-04-26 11:27 | 49.94336 | 1.91151 | 36587 ft | 409 kts | 309° |
| 2026-04-26 11:28 | 49.96160 | 1.87769 | 36111 ft | 408 kts | 309° |
| 2026-04-26 11:28 | 49.97983 | 1.84384 | 35568 ft | 409 kts | 309° |
| 2026-04-26 11:28 | 49.99808 | 1.80992 | 35023 ft | 410 kts | 309° |
| 2026-04-26 11:28 | 50.01640 | 1.77582 | 34376 ft | 413 kts | 309° |
| 2026-04-26 11:29 | 50.03488 | 1.74137 | 33644 ft | 416 kts | 309° |
| 2026-04-26 11:29 | 50.05343 | 1.70673 | 32942 ft | 418 kts | 309° |
| 2026-04-26 11:29 | 50.07302 | 1.67323 | 32246 ft | 420 kts | 315° |
| 2026-04-26 11:29 | 50.09470 | 1.64259 | 31533 ft | 422 kts | 317° |
| 2026-04-26 11:30 | 50.11679 | 1.61227 | 30910 ft | 422 kts | 317° |
| 2026-04-26 11:30 | 50.13135 | 1.59242 | 30583 ft | 419 kts | 317° |
| 2026-04-26 11:30 | 50.16051 | 1.55268 | 29844 ft | 414 kts | 317° |
| 2026-04-26 11:30 | 50.18210 | 1.52327 | 29311 ft | 410 kts | 317° |
| 2026-04-26 11:31 | 50.20347 | 1.49414 | 28789 ft | 406 kts | 317° |
| 2026-04-26 11:31 | 50.22464 | 1.46526 | 28262 ft | 403 kts | 317° |
| 2026-04-26 11:31 | 50.24571 | 1.43649 | 27763 ft | 399 kts | 317° |
| 2026-04-26 11:31 | 50.26651 | 1.40805 | 27240 ft | 396 kts | 317° |
| 2026-04-26 11:32 | 50.28691 | 1.38012 | 26727 ft | 394 kts | 317° |
| 2026-04-26 11:32 | 50.30746 | 1.35197 | 26188 ft | 392 kts | 317° |
| 2026-04-26 11:32 | 50.32792 | 1.32390 | 25691 ft | 390 kts | 317° |
| 2026-04-26 11:32 | 50.34827 | 1.29593 | 25173 ft | 388 kts | 317° |
| 2026-04-26 11:33 | 50.36854 | 1.26805 | 24667 ft | 387 kts | 317° |
| 2026-04-26 11:33 | 50.38871 | 1.24028 | 24147 ft | 386 kts | 317° |
| 2026-04-26 11:33 | 50.40888 | 1.21248 | 23598 ft | 385 kts | 317° |
| 2026-04-26 11:33 | 50.42894 | 1.18479 | 23074 ft | 383 kts | 317° |
| 2026-04-26 11:34 | 50.44888 | 1.15725 | 22551 ft | 381 kts | 317° |
| 2026-04-26 11:34 | 50.46870 | 1.12984 | 22043 ft | 379 kts | 317° |
| 2026-04-26 11:34 | 50.48838 | 1.10259 | 21538 ft | 377 kts | 317° |
| 2026-04-26 11:34 | 50.50794 | 1.07537 | 21021 ft | 374 kts | 316° |
| 2026-04-26 11:35 | 50.52629 | 1.04674 | 20539 ft | 371 kts | 312° |
| 2026-04-26 11:35 | 50.54394 | 1.01723 | 20067 ft | 369 kts | 311° |
| 2026-04-26 11:35 | 50.56135 | 0.98783 | 19574 ft | 367 kts | 311° |
| 2026-04-26 11:35 | 50.57284 | 0.96842 | 19239 ft | 366 kts | 311° |
| 2026-04-26 11:36 | 50.59593 | 0.92938 | 18597 ft | 363 kts | 311° |
| 2026-04-26 11:36 | 50.61311 | 0.90032 | 18065 ft | 361 kts | 311° |
| 2026-04-26 11:36 | 50.63018 | 0.87142 | 17562 ft | 359 kts | 311° |
| 2026-04-26 11:36 | 50.64711 | 0.84273 | 17067 ft | 356 kts | 311° |
| 2026-04-26 11:37 | 50.66392 | 0.81422 | 16577 ft | 354 kts | 311° |
| 2026-04-26 11:37 | 50.68058 | 0.78586 | 16098 ft | 352 kts | 310° |
| 2026-04-26 11:37 | 50.69617 | 0.75627 | 15596 ft | 350 kts | 306° |
| 2026-04-26 11:37 | 50.71117 | 0.72614 | 15101 ft | 349 kts | 307° |
| 2026-04-26 11:38 | 50.72615 | 0.69613 | 14601 ft | 348 kts | 307° |
| 2026-04-26 11:38 | 50.74118 | 0.66626 | 14100 ft | 347 kts | 307° |
| 2026-04-26 11:38 | 50.75624 | 0.63649 | 13566 ft | 346 kts | 307° |
| 2026-04-26 11:38 | 50.77116 | 0.60706 | 13239 ft | 339 kts | 308° |
| 2026-04-26 11:39 | 50.78566 | 0.57849 | 13075 ft | 328 kts | 308° |
| 2026-04-26 11:39 | 50.79971 | 0.55081 | 12924 ft | 318 kts | 307° |
| 2026-04-26 11:39 | 50.81312 | 0.52433 | 12793 ft | 308 kts | 307° |
| 2026-04-26 11:39 | 50.82632 | 0.49830 | 12635 ft | 300 kts | 307° |
| 2026-04-26 11:40 | 50.83924 | 0.47280 | 12364 ft | 296 kts | 307° |
| 2026-04-26 11:40 | 50.85208 | 0.44738 | 12037 ft | 296 kts | 307° |
| 2026-04-26 11:40 | 50.86488 | 0.42202 | 11714 ft | 294 kts | 307° |
| 2026-04-26 11:40 | 50.87759 | 0.39682 | 11510 ft | 289 kts | 307° |
| 2026-04-26 11:41 | 50.88984 | 0.37255 | 11358 ft | 274 kts | 307° |
| 2026-04-26 11:42 | 50.95925 | 0.20787 | 9112 ft | 264 kts | 291° |
| 2026-04-26 11:43 | 50.96600 | 0.18023 | 8490 ft | 272 kts | 291° |
| 2026-04-26 11:43 | 50.97287 | 0.15230 | 7850 ft | 269 kts | 291° |
| 2026-04-26 11:43 | 50.97958 | 0.12505 | 7234 ft | 262 kts | 291° |
| 2026-04-26 11:43 | 50.98612 | 0.09850 | 6648 ft | 255 kts | 291° |
| 2026-04-26 11:44 | 50.99253 | 0.07250 | 6024 ft | 250 kts | 291° |
| 2026-04-26 11:44 | 50.99880 | 0.04714 | 5534 ft | 245 kts | 290° |
| 2026-04-26 11:44 | 51.00493 | 0.02230 | 5277 ft | 240 kts | 290° |
| 2026-04-26 11:44 | 51.01100 | -0.00256 | 5145 ft | 242 kts | 290° |
| 2026-04-26 11:45 | 51.01707 | -0.02736 | 4971 ft | 242 kts | 290° |
| 2026-04-26 11:45 | 51.02321 | -0.05248 | 4760 ft | 245 kts | 290° |
| 2026-04-26 11:45 | 51.02943 | -0.07776 | 4614 ft | 245 kts | 290° |
| 2026-04-26 11:45 | 51.03562 | -0.10279 | 4413 ft | 242 kts | 290° |
| 2026-04-26 11:46 | 51.04179 | -0.12791 | 4267 ft | 245 kts | 290° |
| 2026-04-26 11:46 | 51.04792 | -0.15309 | 4134 ft | 243 kts | 290° |
| 2026-04-26 11:46 | 51.05401 | -0.17814 | 3909 ft | 243 kts | 290° |
| 2026-04-26 11:46 | 51.06008 | -0.20310 | 3700 ft | 241 kts | 290° |
| 2026-04-26 11:47 | 51.06610 | -0.22793 | 3512 ft | 239 kts | 290° |
| 2026-04-26 11:47 | 51.07214 | -0.25271 | 3368 ft | 241 kts | 290° |
| 2026-04-26 11:47 | 51.07815 | -0.27744 | 3171 ft | 240 kts | 290° |
| 2026-04-26 11:47 | 51.08415 | -0.30214 | 3035 ft | 238 kts | 290° |
| 2026-04-26 11:48 | 51.08996 | -0.32631 | 2944 ft | 228 kts | 289° |
| 2026-04-26 11:48 | 51.09275 | -0.35038 | 2939 ft | 219 kts | 272° |
| 2026-04-26 11:48 | 51.09650 | -0.37378 | 2885 ft | 221 kts | 299° |
| 2026-04-26 11:48 | 51.10718 | -0.39066 | 2778 ft | 217 kts | 334° |
| 2026-04-26 11:49 | 51.12124 | -0.39492 | 2660 ft | 198 kts | 11° |
| 2026-04-26 11:49 | 51.13272 | -0.38590 | 2554 ft | 176 kts | 50° |
| 2026-04-26 11:49 | 51.13838 | -0.37016 | 2409 ft | 159 kts | 72° |
| 2026-04-26 11:49 | 51.14118 | -0.35401 | 2179 ft | 145 kts | 88° |
| 2026-04-26 11:50 | 51.13993 | -0.33814 | 1919 ft | 145 kts | 104° |
| 2026-04-26 11:50 | 51.13774 | -0.32315 | 1741 ft | 132 kts | 104° |
| 2026-04-26 11:50 | 51.13590 | -0.30944 | 1564 ft | 124 kts | 100° |
| 2026-04-26 11:50 | 51.13474 | -0.29613 | 1381 ft | 119 kts | 98° |
| 2026-04-26 11:51 | 51.13506 | -0.28272 | 1039 ft | 122 kts | 88° |
| 2026-04-26 11:51 | 51.13713 | -0.26924 | 938 ft | 146 kts | 76° |
| 2026-04-26 11:51 | 51.13942 | -0.25371 | 789 ft | 136 kts | 80° |
| 2026-04-26 11:51 | 51.14123 | -0.23936 | 643 ft | 131 kts | 78° |
| 2026-04-26 11:52 | 51.14345 | -0.22464 | 493 ft | 134 kts | 77° |
| 2026-04-26 11:52 | 51.14471 | -0.21517 | 369 ft | 125 kts | 77° |
| 2026-04-26 11:52 | 51.14704 | -0.19817 | 215 ft | 105 kts | 79° |
| 2026-04-26 11:52 | 51.14803 | -0.19105 | 219 ft | 23 kts | 78° |
| 2026-04-26 11:53 | 51.14846 | -0.18777 | 214 ft | 52 kts | 78° |
| 2026-04-26 11:53 | 51.14934 | -0.18132 | 218 ft | 58 kts | 72° |
| 2026-04-26 11:53 | 51.15069 | -0.17773 | 219 ft | 9 kts | 31° |
| 2026-04-26 11:54 | 51.15098 | -0.17759 | 214 ft | 0 kts | 4° |
| 2026-04-26 11:54 | 51.15099 | -0.17759 | 210 ft | 1 kts | 4° |
| 2026-04-26 11:54 | 51.15134 | -0.17755 | 210 ft | 9 kts | 7° |
| 2026-04-26 11:55 | 51.15169 | -0.17701 | 216 ft | 7 kts | 53° |
| 2026-04-26 11:55 | 51.15189 | -0.17625 | 219 ft | 8 kts | 73° |
| 2026-04-26 11:55 | 51.15216 | -0.17459 | 213 ft | 18 kts | 77° |
| 2026-04-26 11:55 | 51.15264 | -0.17352 | 216 ft | 10 kts | 13° |
| 2026-04-26 11:56 | 51.15333 | -0.17365 | 217 ft | 10 kts | 347° |
| 2026-04-26 11:56 | 51.15410 | -0.17390 | 214 ft | 13 kts | 348° |
| 2026-04-26 11:56 | 51.15502 | -0.17422 | 214 ft | 15 kts | 347° |
| 2026-04-26 11:56 | 51.15608 | -0.17461 | 216 ft | 17 kts | 347° |
| 2026-04-26 11:57 | 51.15726 | -0.17515 | 213 ft | 18 kts | 327° |
| 2026-04-26 11:57 | 51.15807 | -0.17622 | 218 ft | 14 kts | 346° |
| 2026-04-26 11:57 | 51.15835 | -0.17631 | 217 ft | 3 kts | 347° |